Time,TemperatureF,DewpointF,PressureIn,WindDirection,WindDirectionDegrees,WindSpeedMPH,WindSpeedGustMPH,Humidity,HourlyPrecipIn,Conditions,Clouds,dailyrainin,SoftwareType,DateUTC
2013-04-09 00:00:00,57.0,51.9,29.98,SSE,149,2.0,8.0,83,0.22,,RMK !SN!,0.27,WUHU216DAVISVP2,2013-04-09 04:00:00,
2013-04-09 00:05:00,56.9,51.5,29.98,ENE,58,3.0,8.0,82,0.22,,RMK !SN!,0.00,WUHU216DAVISVP2,2013-04-09 04:05:00,
2013-04-09 00:10:00,56.9,51.5,29.98,ENE,69,2.0,7.0,82,0.22,,RMK !SN!,0.00,WUHU216DAVISVP2,2013-04-09 04:10:00,
2013-04-09 00:15:00,57.0,51.2,29.99,SE,134,0.0,7.0,81,0.15,,RMK !SN!,0.00,WUHU216DAVISVP2,2013-04-09 04:15:00,
2013-04-09 00:20:00,56.8,50.7,29.99,SE,140,1.0,7.0,80,0.09,,RMK !SN!,0.00,WUHU216DAVISVP2,2013-04-09 04:20:00,
2013-04-09 00:25:00,56.9,49.8,29.99,ESE,115,1.0,7.0,77,0.02,,RMK !SN!,0.00,WUHU216DAVISVP2,2013-04-09 04:25:00,
2013-04-09 00:30:00,57.0,49.9,29.99,East,83,2.0,6.0,77,0.01,,RMK !SN!,0.00,WUHU216DAVISVP2,2013-04-09 04:30:00,
2013-04-09 00:35:00,57.0,49.9,30.00,ENE,78,3.0,6.0,77,0.00,,RMK !SN!,0.00,WUHU216DAVISVP2,2013-04-09 04:35:00,
2013-04-09 00:40:00,57.1,49.3,30.00,East,96,1.0,6.0,75,0.00,,RMK !SN!,0.00,WUHU216DAVISVP2,2013-04-09 04:40:00,
2013-04-09 00:45:00,57.1,49.0,30.00,ENE,70,2.0,7.0,74,0.00,,RMK !SN!,0.00,WUHU216DAVISVP2,2013-04-09 04:45:00,
2013-04-09 00:50:00,57.2,48.7,30.00,SE,127,1.0,7.0,73,0.00,,RMK !SN!,0.00,WUHU216DAVISVP2,2013-04-09 04:50:00,
2013-04-09 00:55:00,57.2,48.4,30.00,East,82,2.0,8.0,72,0.00,,RMK !SN!,0.00,WUHU216DAVISVP2,2013-04-09 04:55:00,
2013-04-09 01:00:00,57.2,48.4,30.01,SE,142,0.0,8.0,72,0.00,,RMK !SN!,0.00,WUHU216DAVISVP2,2013-04-09 05:00:00,
2013-04-09 01:05:00,57.2,48.0,30.01,ESE,110,1.0,8.0,71,0.00,,RMK !SN!,0.00,WUHU216DAVISVP2,2013-04-09 05:05:00,
2013-04-09 01:10:00,57.3,47.7,30.01,ESE,107,2.0,7.0,70,0.00,,RMK !SN!,0.00,WUHU216DAVISVP2,2013-04-09 05:10:00,
2013-04-09 01:15:00,57.2,47.3,30.01,ESE,113,0.0,7.0,69,0.00,,RMK !SN!,0.00,WUHU216DAVISVP2,2013-04-09 05:15:00,
2013-04-09 01:20:00,57.1,47.5,30.01,ENE,72,3.0,7.0,70,0.00,,RMK !SN!,0.00,WUHU216DAVISVP2,2013-04-09 05:20:00,
2013-04-09 01:25:00,57.1,46.8,30.02,SE,134,1.0,7.0,68,0.00,,RMK !SN!,0.00,WUHU216DAVISVP2,2013-04-09 05:25:00,
2013-04-09 01:30:00,57.0,46.5,30.03,ESE,120,1.0,11.0,68,0.00,,RMK !SN!,0.00,WUHU216DAVISVP2,2013-04-09 05:30:00,
2013-04-09 01:35:00,57.2,46.3,30.03,SE,135,1.0,11.0,67,0.00,,RMK !SN!,0.00,WUHU216DAVISVP2,2013-04-09 05:35:00,
2013-04-09 01:40:00,57.2,46.1,30.03,ESE,123,2.0,10.0,66,0.00,,RMK !SN!,0.00,WUHU216DAVISVP2,2013-04-09 05:40:00,
2013-04-09 01:45:00,57.1,46.0,30.03,East,98,1.0,9.0,66,0.00,,RMK !SN!,0.00,WUHU216DAVISVP2,2013-04-09 05:45:00,
2013-04-09 01:50:00,56.8,46.1,30.04,SSE,156,0.0,9.0,67,0.00,,RMK !SN!,0.00,WUHU216DAVISVP2,2013-04-09 05:50:00,
2013-04-09 01:55:00,56.2,45.9,30.04,SE,124,1.0,6.0,68,0.00,,RMK !SN!,0.00,WUHU216DAVISVP2,2013-04-09 05:55:00,
2013-04-09 02:00:00,55.5,45.5,30.04,South,173,1.0,5.0,69,0.00,,RMK !SN!,0.00,WUHU216DAVISVP2,2013-04-09 06:00:00,
2013-04-09 02:05:00,54.7,45.6,30.04,NE,56,1.0,6.0,71,0.00,,RMK !SN!,0.00,WUHU216DAVISVP2,2013-04-09 06:05:00,
2013-04-09 02:10:00,53.9,45.2,30.05,SSE,152,1.0,6.0,72,0.00,,RMK !SN!,0.00,WUHU216DAVISVP2,2013-04-09 06:10:00,
2013-04-09 02:15:00,53.3,45.3,30.05,ESE,109,1.0,6.0,74,0.00,,RMK !SN!,0.00,WUHU216DAVISVP2,2013-04-09 06:15:00,
2013-04-09 02:20:00,52.9,45.3,30.05,East,100,1.0,7.0,75,0.00,,RMK !SN!,0.00,WUHU216DAVISVP2,2013-04-09 06:20:00,
2013-04-09 02:25:00,52.5,44.9,30.05,ESE,105,1.0,7.0,75,0.00,,RMK !SN!,0.00,WUHU216DAVISVP2,2013-04-09 06:25:00,
2013-04-09 02:30:00,52.1,44.5,30.05,East,82,1.0,7.0,75,0.00,,RMK !SN!,0.00,WUHU216DAVISVP2,2013-04-09 06:30:00,
2013-04-09 02:35:00,51.7,44.4,30.05,East,98,2.0,6.0,76,0.00,,RMK !SN!,0.00,WUHU216DAVISVP2,2013-04-09 06:35:00,
2013-04-09 02:40:00,51.1,44.2,30.05,ESE,110,1.0,6.0,77,0.00,,RMK !SN!,0.00,WUHU216DAVISVP2,2013-04-09 06:40:00,
2013-04-09 02:45:00,50.5,43.9,30.05,ENE,72,3.0,5.0,78,0.00,,RMK !SN!,0.00,WUHU216DAVISVP2,2013-04-09 06:45:00,
2013-04-09 02:50:00,49.9,43.6,30.05,East,99,0.0,9.0,79,0.00,,RMK !SN!,0.00,WUHU216DAVISVP2,2013-04-09 06:50:00,
2013-04-09 02:55:00,49.3,43.4,30.05,SE,143,1.0,9.0,80,0.00,,RMK !SN!,0.00,WUHU216DAVISVP2,2013-04-09 06:55:00,
2013-04-09 03:00:00,48.7,43.2,30.06,SE,141,0.0,8.0,81,0.00,,RMK !SN!,0.00,WUHU216DAVISVP2,2013-04-09 07:00:00,
2013-04-09 03:05:00,48.2,43.0,30.06,ESE,113,0.0,8.0,82,0.00,,RMK !SN!,0.00,WUHU216DAVISVP2,2013-04-09 07:05:00,
2013-04-09 03:10:00,47.7,42.8,30.06,SSE,162,4.0,4.0,83,0.00,,RMK !SN!,0.00,WUHU216DAVISVP2,2013-04-09 07:10:00,
2013-04-09 03:15:00,47.2,42.6,30.06,SE,146,0.0,5.0,84,0.00,,RMK !SN!,0.00,WUHU216DAVISVP2,2013-04-09 07:15:00,
2013-04-09 03:20:00,46.8,42.5,30.06,SSE,158,0.0,5.0,85,0.00,,RMK !SN!,0.00,WUHU216DAVISVP2,2013-04-09 07:20:00,
2013-04-09 03:25:00,46.6,42.3,30.06,SSE,158,1.0,5.0,85,0.00,,RMK !SN!,0.00,WUHU216DAVISVP2,2013-04-09 07:25:00,
2013-04-09 03:30:00,46.4,42.4,30.06,South,169,3.0,3.0,86,0.00,,RMK !SN!,0.00,WUHU216DAVISVP2,2013-04-09 07:30:00,
2013-04-09 03:35:00,46.1,42.1,30.07,SSE,153,0.0,3.0,86,0.00,,RMK !SN!,0.00,WUHU216DAVISVP2,2013-04-09 07:35:00,
2013-04-09 03:40:00,46.0,42.0,30.06,ESE,118,0.0,3.0,86,0.00,,RMK !SN!,0.00,WUHU216DAVISVP2,2013-04-09 07:40:00,
2013-04-09 03:45:00,45.8,42.2,30.07,ESE,118,0.0,3.0,87,0.00,,RMK !SN!,0.00,WUHU216DAVISVP2,2013-04-09 07:45:00,
2013-04-09 03:50:00,45.6,42.2,30.07,ESE,118,0.0,1.0,88,0.00,,RMK !SN!,0.00,WUHU216DAVISVP2,2013-04-09 07:50:00,
2013-04-09 03:55:00,45.5,42.1,30.07,ESE,119,0.0,1.0,88,0.00,,RMK !SN!,0.00,WUHU216DAVISVP2,2013-04-09 07:55:00,
2013-04-09 04:00:00,45.3,41.9,30.07,ESE,118,0.0,1.0,88,0.00,,RMK !SN!,0.00,WUHU216DAVISVP2,2013-04-09 08:00:00,
2013-04-09 04:05:00,45.1,41.7,30.08,SSE,153,1.0,2.0,88,0.00,,RMK !SN!,0.00,WUHU216DAVISVP2,2013-04-09 08:05:00,
2013-04-09 04:10:00,45.0,42.0,30.08,SSE,162,2.0,3.0,89,0.00,,RMK !SN!,0.00,WUHU216DAVISVP2,2013-04-09 08:10:00,
2013-04-09 04:15:00,44.9,41.9,30.08,SE,145,1.0,4.0,89,0.00,,RMK !SN!,0.00,WUHU216DAVISVP2,2013-04-09 08:15:00,
2013-04-09 04:20:00,44.9,41.8,30.08,SE,124,0.0,4.0,89,0.00,,RMK !SN!,0.00,WUHU216DAVISVP2,2013-04-09 08:20:00,
2013-04-09 04:25:00,44.8,41.7,30.08,SE,126,0.0,4.0,89,0.00,,RMK !SN!,0.00,WUHU216DAVISVP2,2013-04-09 08:25:00,
2013-04-09 04:30:00,44.7,41.6,30.08,SE,139,0.0,4.0,89,0.00,,RMK !SN!,0.00,WUHU216DAVISVP2,2013-04-09 08:30:00,
2013-04-09 04:35:00,44.5,41.4,30.08,SE,139,0.0,1.0,89,0.00,,RMK !SN!,0.00,WUHU216DAVISVP2,2013-04-09 08:35:00,
2013-04-09 04:40:00,44.4,41.6,30.08,SE,139,1.0,2.0,90,0.00,,RMK !SN!,0.00,WUHU216DAVISVP2,2013-04-09 08:40:00,
2013-04-09 04:45:00,44.3,41.6,30.09,SE,139,0.0,2.0,90,0.00,,RMK !SN!,0.00,WUHU216DAVISVP2,2013-04-09 08:45:00,
2013-04-09 04:50:00,44.3,41.6,30.09,SE,139,0.0,2.0,90,0.00,,RMK !SN!,0.00,WUHU216DAVISVP2,2013-04-09 08:50:00,
2013-04-09 04:55:00,44.3,41.5,30.09,SE,141,0.0,2.0,90,0.00,,RMK !SN!,0.00,WUHU216DAVISVP2,2013-04-09 08:55:00,
2013-04-09 05:00:00,44.3,41.8,30.09,SE,142,0.0,2.0,91,0.00,,RMK !SN!,0.00,WUHU216DAVISVP2,2013-04-09 09:00:00,
2013-04-09 05:06:00,44.3,41.8,30.09,SE,142,0.0,2.0,91,0.00,,RMK !SN!,0.00,WUHU216DAVISVP2,2013-04-09 09:06:00,
2013-04-09 05:11:00,44.3,41.8,30.09,SE,142,0.0,2.0,91,0.00,,RMK !SN!,0.00,WUHU216DAVISVP2,2013-04-09 09:11:00,
2013-04-09 05:16:00,44.3,41.8,30.10,SE,143,0.0,1.0,91,0.00,,RMK !SN!,0.00,WUHU216DAVISVP2,2013-04-09 09:16:00,
2013-04-09 05:21:00,44.3,41.8,30.10,SE,143,0.0,1.0,91,0.00,,RMK !SN!,0.00,WUHU216DAVISVP2,2013-04-09 09:21:00,
2013-04-09 05:26:00,44.4,41.9,30.10,SE,143,0.0,1.0,91,0.00,,RMK !SN!,0.00,WUHU216DAVISVP2,2013-04-09 09:26:00,
2013-04-09 05:31:00,44.3,41.8,30.10,SE,143,0.0,1.0,91,0.00,,RMK !SN!,0.00,WUHU216DAVISVP2,2013-04-09 09:31:00,
2013-04-09 05:36:00,44.3,41.8,30.10,SE,142,0.0,1.0,91,0.00,,RMK !SN!,0.00,WUHU216DAVISVP2,2013-04-09 09:36:00,
2013-04-09 05:41:00,44.3,41.8,30.10,SE,142,0.0,1.0,91,0.00,,RMK !SN!,0.00,WUHU216DAVISVP2,2013-04-09 09:41:00,
2013-04-09 05:46:00,44.3,41.8,30.10,SE,142,0.0,1.0,91,0.00,,RMK !SN!,0.00,WUHU216DAVISVP2,2013-04-09 09:46:00,
2013-04-09 05:51:00,44.2,41.7,30.10,SE,142,1.0,1.0,91,0.00,,RMK !SN!,0.00,WUHU216DAVISVP2,2013-04-09 09:51:00,
2013-04-09 05:57:00,44.3,41.8,30.10,SSE,153,0.0,2.0,91,0.00,,RMK !SN!,0.00,WUHU216DAVISVP2,2013-04-09 09:57:00,
2013-04-09 06:02:00,44.4,41.9,30.11,SSE,148,0.0,2.0,91,0.00,,RMK !SN!,0.00,WUHU216DAVISVP2,2013-04-09 10:02:00,
2013-04-09 06:07:00,44.5,42.0,30.11,SSE,148,0.0,2.0,91,0.00,,RMK !SN!,0.00,WUHU216DAVISVP2,2013-04-09 10:07:00,
2013-04-09 06:12:00,44.4,41.9,30.11,SSE,148,1.0,1.0,91,0.00,,RMK !SN!,0.00,WUHU216DAVISVP2,2013-04-09 10:12:00,
2013-04-09 06:17:00,44.4,41.9,30.11,SSE,148,0.0,1.0,91,0.00,,RMK !SN!,0.00,WUHU216DAVISVP2,2013-04-09 10:17:00,
2013-04-09 06:22:00,44.4,41.9,30.11,SSE,148,0.0,1.0,91,0.00,,RMK !SN!,0.00,WUHU216DAVISVP2,2013-04-09 10:22:00,
2013-04-09 06:27:00,44.3,41.8,30.11,SSE,165,2.0,3.0,91,0.00,,RMK !SN!,0.00,WUHU216DAVISVP2,2013-04-09 10:27:00,
2013-04-09 06:32:00,44.1,41.6,30.11,SSE,165,0.0,3.0,91,0.00,,RMK !SN!,0.00,WUHU216DAVISVP2,2013-04-09 10:32:00,
2013-04-09 06:37:00,44.0,41.5,30.12,South,176,1.0,3.0,91,0.00,,RMK !SN!,0.00,WUHU216DAVISVP2,2013-04-09 10:37:00,
2013-04-09 06:42:00,43.9,41.4,30.12,SE,144,1.0,3.0,91,0.00,,RMK !SN!,0.00,WUHU216DAVISVP2,2013-04-09 10:42:00,
2013-04-09 06:47:00,43.7,41.2,30.12,SE,143,0.0,3.0,91,0.00,,RMK !SN!,0.00,WUHU216DAVISVP2,2013-04-09 10:47:00,
2013-04-09 06:52:00,43.6,41.4,30.13,SE,145,0.0,3.0,92,0.00,,RMK !SN!,0.00,WUHU216DAVISVP2,2013-04-09 10:52:00,
2013-04-09 06:57:00,43.5,41.3,30.13,SE,145,0.0,1.0,92,0.00,,RMK !SN!,0.00,WUHU216DAVISVP2,2013-04-09 10:57:00,
2013-04-09 07:02:00,43.4,41.2,30.13,SE,145,0.0,1.0,92,0.00,,RMK !SN!,0.00,WUHU216DAVISVP2,2013-04-09 11:02:00,
2013-04-09 07:07:00,43.3,41.1,30.13,SE,145,1.0,1.0,92,0.00,,RMK !SN!,0.00,WUHU216DAVISVP2,2013-04-09 11:07:00,
2013-04-09 07:12:00,43.2,41.3,30.14,SE,145,0.0,1.0,93,0.00,,RMK !SN!,0.00,WUHU216DAVISVP2,2013-04-09 11:12:00,
2013-04-09 07:17:00,43.3,41.4,30.14,SE,145,0.0,1.0,93,0.00,,RMK !SN!,0.00,WUHU216DAVISVP2,2013-04-09 11:17:00,
2013-04-09 07:22:00,43.2,41.3,30.14,SE,145,0.0,1.0,93,0.00,,RMK !SN!,0.00,WUHU216DAVISVP2,2013-04-09 11:22:00,
2013-04-09 07:27:00,43.3,41.4,30.14,SE,145,0.0,1.0,93,0.00,,RMK !SN!,0.00,WUHU216DAVISVP2,2013-04-09 11:27:00,
2013-04-09 07:32:00,43.3,41.4,30.14,SE,145,0.0,1.0,93,0.00,,RMK !SN!,0.00,WUHU216DAVISVP2,2013-04-09 11:32:00,
2013-04-09 07:37:00,43.5,41.6,30.13,SE,145,1.0,1.0,93,0.00,,RMK !SN!,0.00,WUHU216DAVISVP2,2013-04-09 11:37:00,
2013-04-09 07:42:00,43.6,41.7,30.14,SE,145,0.0,1.0,93,0.00,,RMK !SN!,0.00,WUHU216DAVISVP2,2013-04-09 11:42:00,
2013-04-09 07:47:00,43.7,41.8,30.14,SE,145,0.0,1.0,93,0.00,,RMK !SN!,0.00,WUHU216DAVISVP2,2013-04-09 11:47:00,
2013-04-09 07:52:00,43.9,42.0,30.14,SSE,160,0.0,1.0,93,0.00,,RMK !SN!,0.00,WUHU216DAVISVP2,2013-04-09 11:52:00,
2013-04-09 07:57:00,44.0,42.1,30.14,North,7,0.0,1.0,93,0.00,,RMK !SN!,0.00,WUHU216DAVISVP2,2013-04-09 11:57:00,
2013-04-09 08:02:00,44.1,42.2,30.13,SSE,160,0.0,1.0,93,0.00,,RMK !SN!,0.00,WUHU216DAVISVP2,2013-04-09 12:02:00,
2013-04-09 08:07:00,44.2,42.0,30.13,SSE,160,0.0,1.0,92,0.00,,RMK !SN!,0.00,WUHU216DAVISVP2,2013-04-09 12:07:00,
2013-04-09 08:12:00,44.4,42.2,30.13,SSE,160,0.0,1.0,92,0.00,,RMK !SN!,0.00,WUHU216DAVISVP2,2013-04-09 12:12:00,
2013-04-09 08:17:00,44.5,42.3,30.13,SE,133,0.0,1.0,92,0.00,,RMK !SN!,0.00,WUHU216DAVISVP2,2013-04-09 12:17:00,
2013-04-09 08:22:00,44.6,42.4,30.13,SSW,194,0.0,2.0,92,0.00,,RMK !SN!,0.00,WUHU216DAVISVP2,2013-04-09 12:22:00,
2013-04-09 08:28:00,44.8,42.6,30.13,East,97,0.0,2.0,92,0.00,,RMK !SN!,0.00,WUHU216DAVISVP2,2013-04-09 12:28:00,
2013-04-09 08:33:00,45.1,42.9,30.13,SE,144,0.0,2.0,92,0.00,,RMK !SN!,0.00,WUHU216DAVISVP2,2013-04-09 12:33:00,
2013-04-09 08:38:00,45.5,43.0,30.13,ESE,104,1.0,2.0,91,0.00,,RMK !SN!,0.00,WUHU216DAVISVP2,2013-04-09 12:38:00,
2013-04-09 08:43:00,45.7,42.9,30.13,SSW,192,0.0,3.0,90,0.00,,RMK !SN!,0.00,WUHU216DAVISVP2,2013-04-09 12:43:00,
2013-04-09 08:48:00,45.9,43.1,30.12,South,173,0.0,3.0,90,0.00,,RMK !SN!,0.00,WUHU216DAVISVP2,2013-04-09 12:48:00,
2013-04-09 08:53:00,46.4,43.6,30.12,SSW,197,0.0,3.0,90,0.00,,RMK !SN!,0.00,WUHU216DAVISVP2,2013-04-09 12:53:00,
2013-04-09 08:58:00,46.8,43.4,30.11,WSW,250,2.0,3.0,88,0.00,,RMK !SN!,0.00,WUHU216DAVISVP2,2013-04-09 12:58:00,
2013-04-09 09:03:00,47.0,43.3,30.11,WNW,301,1.0,3.0,87,0.00,,RMK !SN!,0.00,WUHU216DAVISVP2,2013-04-09 13:03:00,
2013-04-09 09:08:00,47.2,43.5,30.11,NW,311,0.0,3.0,87,0.00,,RMK !SN!,0.00,WUHU216DAVISVP2,2013-04-09 13:08:00,
2013-04-09 09:13:00,47.4,43.4,30.11,SW,232,0.0,4.0,86,0.00,,RMK !SN!,0.00,WUHU216DAVISVP2,2013-04-09 13:13:00,
2013-04-09 09:18:00,47.9,44.2,30.11,WSW,243,0.0,4.0,87,0.00,,RMK !SN!,0.00,WUHU216DAVISVP2,2013-04-09 13:18:00,
2013-04-09 09:23:00,48.8,44.5,30.11,SW,228,2.0,4.0,85,0.00,,RMK !SN!,0.00,WUHU216DAVISVP2,2013-04-09 13:23:00,
2013-04-09 09:28:00,49.3,44.4,30.11,SSE,147,0.0,6.0,83,0.00,,RMK !SN!,0.00,WUHU216DAVISVP2,2013-04-09 13:28:00,
2013-04-09 09:33:00,49.9,44.6,30.12,SSE,160,0.0,6.0,82,0.00,,RMK !SN!,0.00,WUHU216DAVISVP2,2013-04-09 13:33:00,
2013-04-09 09:38:00,50.8,44.9,30.12,NNE,25,0.0,6.0,80,0.00,,RMK !SN!,0.00,WUHU216DAVISVP2,2013-04-09 13:38:00,
2013-04-09 09:43:00,51.2,45.3,30.11,WSW,246,2.0,6.0,80,0.00,,RMK !SN!,0.00,WUHU216DAVISVP2,2013-04-09 13:43:00,
2013-04-09 09:48:00,51.6,45.0,30.11,SW,227,4.0,4.0,78,0.00,,RMK !SN!,0.00,WUHU216DAVISVP2,2013-04-09 13:48:00,
2013-04-09 09:53:00,51.8,44.5,30.11,WSW,256,3.0,10.0,76,0.00,,RMK !SN!,0.00,WUHU216DAVISVP2,2013-04-09 13:53:00,
2013-04-09 09:58:00,52.3,45.0,30.10,East,79,1.0,10.0,76,0.00,,RMK !SN!,0.00,WUHU216DAVISVP2,2013-04-09 13:58:00,
2013-04-09 10:03:00,53.0,45.7,30.11,WSW,256,1.0,9.0,76,0.00,,RMK !SN!,0.00,WUHU216DAVISVP2,2013-04-09 14:03:00,
2013-04-09 10:08:00,53.4,45.4,30.10,NNW,332,3.0,9.0,74,0.00,,RMK !SN!,0.00,WUHU216DAVISVP2,2013-04-09 14:08:00,
2013-04-09 10:13:00,53.5,45.2,30.10,South,186,1.0,6.0,73,0.00,,RMK !SN!,0.00,WUHU216DAVISVP2,2013-04-09 14:13:00,
2013-04-09 10:18:00,54.0,45.2,30.10,NNW,329,3.0,7.0,72,0.00,,RMK !SN!,0.00,WUHU216DAVISVP2,2013-04-09 14:18:00,
2013-04-09 10:23:00,54.5,46.1,30.11,NW,325,4.0,7.0,73,0.00,,RMK !SN!,0.00,WUHU216DAVISVP2,2013-04-09 14:23:00,
2013-04-09 10:28:00,54.6,46.2,30.10,SW,229,0.0,7.0,73,0.00,,RMK !SN!,0.00,WUHU216DAVISVP2,2013-04-09 14:28:00,
2013-04-09 10:33:00,55.0,45.8,30.10,WNW,284,3.0,8.0,71,0.00,,RMK !SN!,0.00,WUHU216DAVISVP2,2013-04-09 14:33:00,
2013-04-09 10:38:00,55.2,46.1,30.10,NNE,23,2.0,8.0,71,0.00,,RMK !SN!,0.00,WUHU216DAVISVP2,2013-04-09 14:38:00,
2013-04-09 10:43:00,55.6,45.7,30.10,North,349,2.0,8.0,69,0.00,,RMK !SN!,0.00,WUHU216DAVISVP2,2013-04-09 14:43:00,
2013-04-09 10:48:00,56.0,46.5,30.10,NNE,29,4.0,8.0,70,0.00,,RMK !SN!,0.00,WUHU216DAVISVP2,2013-04-09 14:48:00,
2013-04-09 10:53:00,56.4,46.1,30.10,ENE,73,1.0,7.0,68,0.00,,RMK !SN!,0.00,WUHU216DAVISVP2,2013-04-09 14:53:00,
2013-04-09 10:58:00,57.0,46.1,30.10,East,91,2.0,8.0,67,0.00,,RMK !SN!,0.00,WUHU216DAVISVP2,2013-04-09 14:58:00,
2013-04-09 11:03:00,57.3,46.2,30.09,SW,222,1.0,8.0,66,0.00,,RMK !SN!,0.00,WUHU216DAVISVP2,2013-04-09 15:03:00,
2013-04-09 11:08:00,57.7,46.6,30.09,ESE,113,1.0,8.0,66,0.00,,RMK !SN!,0.00,WUHU216DAVISVP2,2013-04-09 15:08:00,
2013-04-09 11:13:00,58.4,46.8,30.10,WSW,243,2.0,8.0,65,0.00,,RMK !SN!,0.00,WUHU216DAVISVP2,2013-04-09 15:13:00,
2013-04-09 11:18:00,59.2,46.6,30.09,NNE,24,2.0,8.0,63,0.00,,RMK !SN!,0.00,WUHU216DAVISVP2,2013-04-09 15:18:00,
2013-04-09 11:23:00,59.7,46.7,30.09,WNW,303,1.0,9.0,62,0.00,,RMK !SN!,0.00,WUHU216DAVISVP2,2013-04-09 15:23:00,
2013-04-09 11:28:00,60.2,46.8,30.09,NNE,19,2.0,9.0,61,0.00,,RMK !SN!,0.00,WUHU216DAVISVP2,2013-04-09 15:28:00,
2013-04-09 11:33:00,60.1,46.7,30.09,NW,322,5.0,9.0,61,0.00,,RMK !SN!,0.00,WUHU216DAVISVP2,2013-04-09 15:33:00,
2013-04-09 11:38:00,60.1,46.3,30.08,NNE,27,8.0,9.0,60,0.00,,RMK !SN!,0.00,WUHU216DAVISVP2,2013-04-09 15:38:00,
2013-04-09 11:43:00,60.5,47.1,30.08,NNE,16,3.0,9.0,61,0.00,,RMK !SN!,0.00,WUHU216DAVISVP2,2013-04-09 15:43:00,
2013-04-09 11:48:00,61.2,47.3,30.08,NNW,336,3.0,9.0,60,0.00,,RMK !SN!,0.00,WUHU216DAVISVP2,2013-04-09 15:48:00,
2013-04-09 11:53:00,62.5,47.6,30.08,NNE,31,3.0,9.0,58,0.00,,RMK !SN!,0.00,WUHU216DAVISVP2,2013-04-09 15:53:00,
2013-04-09 11:58:00,63.0,47.2,30.08,NNW,345,3.0,11.0,56,0.00,,RMK !SN!,0.00,WUHU216DAVISVP2,2013-04-09 15:58:00,
2013-04-09 12:04:00,62.9,47.1,30.08,NNW,338,3.0,11.0,56,0.00,,RMK !SN!,0.00,WUHU216DAVISVP2,2013-04-09 16:04:00,
2013-04-09 12:09:00,63.3,47.0,30.08,NNW,331,3.0,11.0,55,0.00,,RMK !SN!,0.00,WUHU216DAVISVP2,2013-04-09 16:09:00,
2013-04-09 12:14:00,63.9,47.5,30.08,West,280,0.0,11.0,55,0.00,,RMK !SN!,0.00,WUHU216DAVISVP2,2013-04-09 16:14:00,
2013-04-09 12:19:00,64.8,47.8,30.08,ENE,71,3.0,9.0,54,0.00,,RMK !SN!,0.00,WUHU216DAVISVP2,2013-04-09 16:19:00,
2013-04-09 12:24:00,65.2,46.7,30.08,NW,317,4.0,8.0,51,0.00,,RMK !SN!,0.00,WUHU216DAVISVP2,2013-04-09 16:24:00,
2013-04-09 12:29:00,65.6,48.1,30.07,SW,219,2.0,8.0,53,0.00,,RMK !SN!,0.00,WUHU216DAVISVP2,2013-04-09 16:29:00,
2013-04-09 12:34:00,66.5,47.9,30.06,South,177,1.0,8.0,51,0.00,,RMK !SN!,0.00,WUHU216DAVISVP2,2013-04-09 16:34:00,
2013-04-09 12:39:00,66.8,48.7,30.06,WNW,284,0.0,8.0,52,0.00,,RMK !SN!,0.00,WUHU216DAVISVP2,2013-04-09 16:39:00,
2013-04-09 12:44:00,67.6,48.3,30.06,NNW,334,3.0,8.0,50,0.00,,RMK !SN!,0.00,WUHU216DAVISVP2,2013-04-09 16:44:00,
2013-04-09 12:49:00,67.5,48.2,30.05,NNW,339,4.0,7.0,50,0.00,,RMK !SN!,0.00,WUHU216DAVISVP2,2013-04-09 16:49:00,
2013-04-09 12:54:00,67.6,48.8,30.05,ENE,64,2.0,8.0,51,0.00,,RMK !SN!,0.00,WUHU216DAVISVP2,2013-04-09 16:54:00,
2013-04-09 12:59:00,68.7,49.4,30.05,NNE,19,7.0,9.0,50,0.00,,RMK !SN!,0.00,WUHU216DAVISVP2,2013-04-09 16:59:00,
2013-04-09 13:04:00,68.3,49.5,30.05,NNW,345,5.0,10.0,51,0.00,,RMK !SN!,0.00,WUHU216DAVISVP2,2013-04-09 17:04:00,
2013-04-09 13:09:00,68.1,49.4,30.04,North,4,5.0,10.0,51,0.00,,RMK !SN!,0.00,WUHU216DAVISVP2,2013-04-09 17:09:00,
2013-04-09 13:14:00,67.8,49.6,30.04,NNE,29,4.0,12.0,52,0.00,,RMK !SN!,0.00,WUHU216DAVISVP2,2013-04-09 17:14:00,
2013-04-09 13:19:00,68.4,50.7,30.03,NNW,343,4.0,12.0,53,0.00,,RMK !SN!,0.00,WUHU216DAVISVP2,2013-04-09 17:19:00,
2013-04-09 13:25:00,69.1,51.3,30.03,North,6,3.0,11.0,53,0.00,,RMK !SN!,0.00,WUHU216DAVISVP2,2013-04-09 17:25:00,
2013-04-09 13:29:00,70.0,51.7,30.03,NE,44,2.0,8.0,52,0.00,,RMK !SN!,0.00,WUHU216DAVISVP2,2013-04-09 17:29:00,
2013-04-09 13:35:00,70.4,52.0,30.03,North,9,6.0,7.0,52,0.00,,RMK !SN!,0.00,WUHU216DAVISVP2,2013-04-09 17:35:00,
2013-04-09 13:40:00,70.2,51.8,30.03,WSW,246,4.0,8.0,52,0.00,,RMK !SN!,0.00,WUHU216DAVISVP2,2013-04-09 17:40:00,
2013-04-09 13:45:00,70.2,51.8,30.02,North,4,4.0,9.0,52,0.00,,RMK !SN!,0.00,WUHU216DAVISVP2,2013-04-09 17:45:00,
2013-04-09 13:50:00,70.1,52.3,30.02,West,269,1.0,9.0,53,0.00,,RMK !SN!,0.00,WUHU216DAVISVP2,2013-04-09 17:50:00,
2013-04-09 13:55:00,69.9,51.6,30.02,North,3,4.0,10.0,52,0.00,,RMK !SN!,0.00,WUHU216DAVISVP2,2013-04-09 17:55:00,
2013-04-09 14:00:00,69.8,51.5,30.01,NW,319,2.0,10.0,52,0.00,,RMK !SN!,0.00,WUHU216DAVISVP2,2013-04-09 18:00:00,
2013-04-09 14:05:00,69.9,52.1,30.01,ENE,78,1.0,9.0,53,0.00,,RMK !SN!,0.00,WUHU216DAVISVP2,2013-04-09 18:05:00,
2013-04-09 14:10:00,70.2,52.4,30.01,NE,54,2.0,9.0,53,0.00,,RMK !SN!,0.00,WUHU216DAVISVP2,2013-04-09 18:10:00,
2013-04-09 14:15:00,70.8,52.9,30.00,South,170,0.0,8.0,53,0.00,,RMK !SN!,0.00,WUHU216DAVISVP2,2013-04-09 18:15:00,
2013-04-09 14:20:00,71.1,52.7,30.00,NNW,328,6.0,8.0,52,0.00,,RMK !SN!,0.00,WUHU216DAVISVP2,2013-04-09 18:20:00,
2013-04-09 14:25:00,71.0,52.0,30.00,WNW,295,1.0,7.0,51,0.00,,RMK !SN!,0.00,WUHU216DAVISVP2,2013-04-09 18:25:00,
2013-04-09 14:30:00,71.7,53.2,29.99,North,350,6.0,7.0,52,0.00,,RMK !SN!,0.00,WUHU216DAVISVP2,2013-04-09 18:30:00,
2013-04-09 14:35:00,72.0,53.0,29.99,NW,322,4.0,8.0,51,0.00,,RMK !SN!,0.00,WUHU216DAVISVP2,2013-04-09 18:35:00,
2013-04-09 14:40:00,72.4,53.3,29.99,North,352,5.0,9.0,51,0.00,,RMK !SN!,0.00,WUHU216DAVISVP2,2013-04-09 18:40:00,
2013-04-09 14:45:00,72.7,53.6,29.99,ESE,114,0.0,9.0,51,0.00,,RMK !SN!,0.00,WUHU216DAVISVP2,2013-04-09 18:45:00,
2013-04-09 14:50:00,73.1,53.4,29.99,North,356,5.0,9.0,50,0.00,,RMK !SN!,0.00,WUHU216DAVISVP2,2013-04-09 18:50:00,
2013-04-09 14:55:00,72.9,53.2,29.99,NNE,29,3.0,10.0,50,0.00,,RMK !SN!,0.00,WUHU216DAVISVP2,2013-04-09 18:55:00,
2013-04-09 15:00:00,73.0,53.8,29.98,East,84,0.0,10.0,51,0.00,,RMK !SN!,0.00,WUHU216DAVISVP2,2013-04-09 19:00:00,
2013-04-09 15:05:00,73.4,53.6,29.98,ENE,73,2.0,9.0,50,0.00,,RMK !SN!,0.00,WUHU216DAVISVP2,2013-04-09 19:05:00,
2013-04-09 15:10:00,73.7,54.4,29.98,East,98,1.0,9.0,51,0.00,,RMK !SN!,0.00,WUHU216DAVISVP2,2013-04-09 19:10:00,
2013-04-09 15:15:00,73.7,53.9,29.97,ENE,74,1.0,7.0,50,0.00,,RMK !SN!,0.00,WUHU216DAVISVP2,2013-04-09 19:15:00,
2013-04-09 15:20:00,73.9,54.6,29.96,NE,56,2.0,7.0,51,0.00,,RMK !SN!,0.00,WUHU216DAVISVP2,2013-04-09 19:20:00,
2013-04-09 15:25:00,73.9,54.6,29.96,NW,317,2.0,10.0,51,0.00,,RMK !SN!,0.00,WUHU216DAVISVP2,2013-04-09 19:25:00,
2013-04-09 15:30:00,74.0,54.7,29.96,East,88,2.0,10.0,51,0.00,,RMK !SN!,0.00,WUHU216DAVISVP2,2013-04-09 19:30:00,
2013-04-09 15:35:00,74.1,54.8,29.95,East,100,2.0,10.0,51,0.00,,RMK !SN!,0.00,WUHU216DAVISVP2,2013-04-09 19:35:00,
2013-04-09 15:40:00,74.2,54.4,29.95,East,90,2.0,10.0,50,0.00,,RMK !SN!,0.00,WUHU216DAVISVP2,2013-04-09 19:40:00,
2013-04-09 15:45:00,74.1,54.4,29.95,North,4,4.0,10.0,50,0.00,,RMK !SN!,0.00,WUHU216DAVISVP2,2013-04-09 19:45:00,
2013-04-09 15:50:00,74.3,55.1,29.94,East,80,2.0,10.0,51,0.00,,RMK !SN!,0.00,WUHU216DAVISVP2,2013-04-09 19:50:00,
2013-04-09 15:55:00,74.6,54.8,29.94,NNW,328,6.0,9.0,50,0.00,,RMK !SN!,0.00,WUHU216DAVISVP2,2013-04-09 19:55:00,
2013-04-09 16:00:00,74.8,55.6,29.94,NE,42,6.0,11.0,51,0.00,,RMK !SN!,0.00,WUHU216DAVISVP2,2013-04-09 20:00:00,
2013-04-09 16:06:00,75.5,55.6,29.94,NW,319,6.0,13.0,50,0.00,,RMK !SN!,0.00,WUHU216DAVISVP2,2013-04-09 20:06:00,
2013-04-09 16:11:00,76.0,56.1,29.93,West,267,3.0,13.0,50,0.00,,RMK !SN!,0.00,WUHU216DAVISVP2,2013-04-09 20:11:00,
2013-04-09 16:16:00,76.6,56.1,29.92,ENE,58,3.0,13.0,49,0.00,,RMK !SN!,0.00,WUHU216DAVISVP2,2013-04-09 20:16:00,
2013-04-09 16:21:00,76.6,56.7,29.92,SSE,156,0.0,13.0,50,0.00,,RMK !SN!,0.00,WUHU216DAVISVP2,2013-04-09 20:21:00,
2013-04-09 16:26:00,76.6,56.1,29.92,East,99,2.0,15.0,49,0.00,,RMK !SN!,0.00,WUHU216DAVISVP2,2013-04-09 20:26:00,
2013-04-09 16:31:00,76.8,56.8,29.91,NNW,330,4.0,15.0,50,0.00,,RMK !SN!,0.00,WUHU216DAVISVP2,2013-04-09 20:31:00,
2013-04-09 16:36:00,76.8,56.3,29.91,North,9,8.0,15.0,49,0.00,,RMK !SN!,0.00,WUHU216DAVISVP2,2013-04-09 20:36:00,
2013-04-09 16:41:00,77.0,56.5,29.91,NE,35,3.0,15.0,49,0.00,,RMK !SN!,0.00,WUHU216DAVISVP2,2013-04-09 20:41:00,
2013-04-09 16:46:00,77.2,56.6,29.91,ESE,103,1.0,14.0,49,0.00,,RMK !SN!,0.00,WUHU216DAVISVP2,2013-04-09 20:46:00,
2013-04-09 16:52:00,77.1,56.0,29.90,ENE,58,7.0,14.0,48,0.00,,RMK !SN!,0.00,WUHU216DAVISVP2,2013-04-09 20:52:00,
2013-04-09 16:57:00,77.1,56.5,29.90,ENE,64,2.0,11.0,49,0.00,,RMK !SN!,0.00,WUHU216DAVISVP2,2013-04-09 20:57:00,
2013-04-09 17:02:00,77.1,56.0,29.90,WNW,302,4.0,10.0,48,0.00,,RMK !SN!,0.00,WUHU216DAVISVP2,2013-04-09 21:02:00,
2013-04-09 17:07:00,77.0,56.5,29.89,East,96,1.0,10.0,49,0.00,,RMK !SN!,0.00,WUHU216DAVISVP2,2013-04-09 21:07:00,
2013-04-09 17:12:00,77.2,56.0,29.89,NNE,13,5.0,10.0,48,0.00,,RMK !SN!,0.00,WUHU216DAVISVP2,2013-04-09 21:12:00,
2013-04-09 17:17:00,77.1,56.5,29.89,NE,41,3.0,10.0,49,0.00,,RMK !SN!,0.00,WUHU216DAVISVP2,2013-04-09 21:17:00,
2013-04-09 17:22:00,77.2,56.0,29.89,East,101,2.0,8.0,48,0.00,,RMK !SN!,0.00,WUHU216DAVISVP2,2013-04-09 21:22:00,
2013-04-09 17:27:00,77.4,55.6,29.89,ESE,115,6.0,13.0,47,0.00,,RMK !SN!,0.00,WUHU216DAVISVP2,2013-04-09 21:27:00,
2013-04-09 17:32:00,77.5,55.7,29.90,ESE,108,4.0,13.0,47,0.00,,RMK !SN!,0.00,WUHU216DAVISVP2,2013-04-09 21:32:00,
2013-04-09 17:37:00,77.6,55.8,29.90,East,82,4.0,12.0,47,0.00,,RMK !SN!,0.00,WUHU216DAVISVP2,2013-04-09 21:37:00,
2013-04-09 17:42:00,77.7,55.9,29.89,ENE,73,4.0,12.0,47,0.00,,RMK !SN!,0.00,WUHU216DAVISVP2,2013-04-09 21:42:00,
2013-04-09 17:47:00,77.8,56.0,29.89,WNW,302,3.0,9.0,47,0.00,,RMK !SN!,0.00,WUHU216DAVISVP2,2013-04-09 21:47:00,
2013-04-09 17:52:00,77.9,55.5,29.89,East,84,3.0,12.0,46,0.00,,RMK !SN!,0.00,WUHU216DAVISVP2,2013-04-09 21:52:00,
2013-04-09 17:57:00,77.6,55.8,29.89,East,91,7.0,12.0,47,0.00,,RMK !SN!,0.00,WUHU216DAVISVP2,2013-04-09 21:57:00,
2013-04-09 18:02:00,77.5,56.3,29.89,NNW,335,5.0,12.0,48,0.00,,RMK !SN!,0.00,WUHU216DAVISVP2,2013-04-09 22:02:00,
2013-04-09 18:07:00,77.5,56.3,29.88,NW,314,8.0,12.0,48,0.00,,RMK !SN!,0.00,WUHU216DAVISVP2,2013-04-09 22:07:00,
2013-04-09 18:12:00,77.5,56.3,29.88,East,91,2.0,14.0,48,0.00,,RMK !SN!,0.00,WUHU216DAVISVP2,2013-04-09 22:12:00,
2013-04-09 18:17:00,77.5,56.3,29.88,ENE,71,3.0,14.0,48,0.00,,RMK !SN!,0.00,WUHU216DAVISVP2,2013-04-09 22:17:00,
2013-04-09 18:22:00,77.5,56.9,29.88,North,9,4.0,13.0,49,0.00,,RMK !SN!,0.00,WUHU216DAVISVP2,2013-04-09 22:22:00,
2013-04-09 18:27:00,77.4,56.2,29.88,ESE,103,3.0,13.0,48,0.00,,RMK !SN!,0.00,WUHU216DAVISVP2,2013-04-09 22:27:00,
2013-04-09 18:32:00,77.2,56.6,29.88,NW,313,4.0,10.0,49,0.00,,RMK !SN!,0.00,WUHU216DAVISVP2,2013-04-09 22:32:00,
2013-04-09 18:37:00,77.1,56.5,29.88,North,11,6.0,10.0,49,0.00,,RMK !SN!,0.00,WUHU216DAVISVP2,2013-04-09 22:37:00,
2013-04-09 18:42:00,77.1,56.5,29.88,East,80,1.0,10.0,49,0.00,,RMK !SN!,0.00,WUHU216DAVISVP2,2013-04-09 22:42:00,
2013-04-09 18:47:00,77.0,56.5,29.88,ESE,102,3.0,10.0,49,0.00,,RMK !SN!,0.00,WUHU216DAVISVP2,2013-04-09 22:47:00,
2013-04-09 18:52:00,77.1,56.5,29.88,NE,42,5.0,9.0,49,0.00,,RMK !SN!,0.00,WUHU216DAVISVP2,2013-04-09 22:52:00,
2013-04-09 18:57:00,77.1,56.0,29.88,East,89,5.0,12.0,48,0.00,,RMK !SN!,0.00,WUHU216DAVISVP2,2013-04-09 22:57:00,
2013-04-09 19:02:00,77.2,55.4,29.88,East,101,4.0,12.0,47,0.00,,RMK !SN!,0.00,WUHU216DAVISVP2,2013-04-09 23:02:00,
2013-04-09 19:07:00,77.2,55.4,29.87,ENE,67,6.0,12.0,47,0.00,,RMK !SN!,0.00,WUHU216DAVISVP2,2013-04-09 23:07:00,
2013-04-09 19:12:00,77.2,55.4,29.88,ESE,117,1.0,11.0,47,0.00,,RMK !SN!,0.00,WUHU216DAVISVP2,2013-04-09 23:12:00,
2013-04-09 19:17:00,77.2,55.4,29.87,NNE,18,4.0,11.0,47,0.00,,RMK !SN!,0.00,WUHU216DAVISVP2,2013-04-09 23:17:00,
2013-04-09 19:22:00,77.1,54.7,29.88,East,84,2.0,11.0,46,0.00,,RMK !SN!,0.00,WUHU216DAVISVP2,2013-04-09 23:22:00,
2013-04-09 19:27:00,77.0,54.7,29.88,East,84,3.0,13.0,46,0.00,,RMK !SN!,0.00,WUHU216DAVISVP2,2013-04-09 23:27:00,
2013-04-09 19:32:00,77.0,54.7,29.87,NNE,13,3.0,13.0,46,0.00,,RMK !SN!,0.00,WUHU216DAVISVP2,2013-04-09 23:32:00,
2013-04-09 19:37:00,77.0,54.7,29.87,ENE,60,7.0,19.0,46,0.00,,RMK !SN!,0.00,WUHU216DAVISVP2,2013-04-09 23:37:00,
2013-04-09 19:42:00,76.9,54.6,29.87,NNE,18,6.0,19.0,46,0.00,,RMK !SN!,0.00,WUHU216DAVISVP2,2013-04-09 23:42:00,
2013-04-09 19:47:00,76.8,54.5,29.88,NNE,15,5.0,19.0,46,0.00,,RMK !SN!,0.00,WUHU216DAVISVP2,2013-04-09 23:47:00,
2013-04-09 19:52:00,76.7,54.4,29.88,NE,43,6.0,17.0,46,0.00,,RMK !SN!,0.00,WUHU216DAVISVP2,2013-04-09 23:52:00,
2013-04-09 19:57:00,76.7,54.4,29.88,NE,44,3.0,22.0,46,0.00,,RMK !SN!,0.00,WUHU216DAVISVP2,2013-04-09 23:57:00,
2013-04-09 20:02:00,76.5,54.8,29.88,ESE,120,2.0,22.0,47,0.00,,RMK !SN!,0.00,WUHU216DAVISVP2,2013-04-10 00:02:00,
2013-04-09 20:07:00,76.3,54.6,29.89,ENE,73,2.0,20.0,47,0.00,,RMK !SN!,0.00,WUHU216DAVISVP2,2013-04-10 00:07:00,
2013-04-09 20:12:00,76.1,54.4,29.89,East,89,2.0,8.0,47,0.00,,RMK !SN!,0.00,WUHU216DAVISVP2,2013-04-10 00:12:00,
2013-04-09 20:17:00,75.9,54.9,29.89,ENE,73,3.0,8.0,48,0.00,,RMK !SN!,0.00,WUHU216DAVISVP2,2013-04-10 00:17:00,
2013-04-09 20:22:00,75.7,54.7,29.90,East,96,1.0,8.0,48,0.00,,RMK !SN!,0.00,WUHU216DAVISVP2,2013-04-10 00:22:00,
2013-04-09 20:27:00,75.6,54.0,29.90,NE,56,5.0,10.0,47,0.00,,RMK !SN!,0.00,WUHU216DAVISVP2,2013-04-10 00:27:00,
2013-04-09 20:32:00,75.6,54.0,29.90,ESE,118,4.0,10.0,47,0.00,,RMK !SN!,0.00,WUHU216DAVISVP2,2013-04-10 00:32:00,
2013-04-09 20:37:00,75.5,53.9,29.89,ENE,62,7.0,10.0,47,0.00,,RMK !SN!,0.00,WUHU216DAVISVP2,2013-04-10 00:37:00,
2013-04-09 20:42:00,75.3,53.7,29.89,NNE,30,8.0,10.0,47,0.00,,RMK !SN!,0.00,WUHU216DAVISVP2,2013-04-10 00:42:00,
2013-04-09 20:47:00,75.2,53.6,29.89,ENE,78,3.0,10.0,47,0.00,,RMK !SN!,0.00,WUHU216DAVISVP2,2013-04-10 00:47:00,
2013-04-09 20:52:00,75.1,53.5,29.90,SE,134,1.0,9.0,47,0.00,,RMK !SN!,0.00,WUHU216DAVISVP2,2013-04-10 00:52:00,
2013-04-09 20:57:00,74.9,53.9,29.90,West,263,2.0,9.0,48,0.00,,RMK !SN!,0.00,WUHU216DAVISVP2,2013-04-10 00:57:00,
2013-04-09 21:02:00,74.7,53.8,29.90,East,97,0.0,8.0,48,0.00,,RMK !SN!,0.00,WUHU216DAVISVP2,2013-04-10 01:02:00,
2013-04-09 21:07:00,74.4,53.5,29.90,SE,138,1.0,8.0,48,0.00,,RMK !SN!,0.00,WUHU216DAVISVP2,2013-04-10 01:07:00,
2013-04-09 21:12:00,74.0,53.6,29.90,ENE,75,2.0,5.0,49,0.00,,RMK !SN!,0.00,WUHU216DAVISVP2,2013-04-10 01:12:00,
2013-04-09 21:17:00,73.4,53.6,29.90,ESE,103,0.0,5.0,50,0.00,,RMK !SN!,0.00,WUHU216DAVISVP2,2013-04-10 01:17:00,
2013-04-09 21:22:00,73.1,53.4,29.90,ESE,123,0.0,4.0,50,0.00,,RMK !SN!,0.00,WUHU216DAVISVP2,2013-04-10 01:22:00,
2013-04-09 21:28:00,72.7,53.0,29.90,ESE,108,2.0,4.0,50,0.00,,RMK !SN!,0.00,WUHU216DAVISVP2,2013-04-10 01:28:00,
2013-04-09 21:33:00,72.2,53.2,29.90,East,91,2.0,4.0,51,0.00,,RMK !SN!,0.00,WUHU216DAVISVP2,2013-04-10 01:33:00,
2013-04-09 21:38:00,70.5,49.9,29.91,ESE,105,1.0,10.0,48,0.00,,RMK !SN!,0.00,WUHU216DAVISVP2,2013-04-10 01:38:00,
2013-04-09 21:43:00,66.7,48.6,29.92,SSE,152,0.0,10.0,52,0.00,,RMK !SN!,0.00,WUHU216DAVISVP2,2013-04-10 01:43:00,
2013-04-09 21:48:00,63.5,47.1,29.92,South,191,4.0,9.0,55,0.00,,RMK !SN!,0.00,WUHU216DAVISVP2,2013-04-10 01:48:00,
2013-04-09 21:53:00,60.9,46.5,29.92,SSE,159,2.0,9.0,59,0.00,,RMK !SN!,0.00,WUHU216DAVISVP2,2013-04-10 01:53:00,
2013-04-09 21:58:00,59.3,46.8,29.93,ESE,117,0.0,6.0,63,0.00,,RMK !SN!,0.00,WUHU216DAVISVP2,2013-04-10 01:58:00,
2013-04-09 22:03:00,58.6,46.6,29.92,ESE,119,0.0,5.0,64,0.00,,RMK !SN!,0.00,WUHU216DAVISVP2,2013-04-10 02:03:00,
2013-04-09 22:08:00,58.1,46.5,29.93,SE,146,0.0,4.0,65,0.00,,RMK !SN!,0.00,WUHU216DAVISVP2,2013-04-10 02:08:00,
2013-04-09 22:13:00,57.8,46.7,29.93,SSE,147,0.0,3.0,66,0.00,,RMK !SN!,0.00,WUHU216DAVISVP2,2013-04-10 02:13:00,
2013-04-09 22:18:00,57.5,46.8,29.93,SSE,148,1.0,1.0,67,0.00,,RMK !SN!,0.00,WUHU216DAVISVP2,2013-04-10 02:18:00,
2013-04-09 22:23:00,57.4,46.9,29.93,SE,146,0.0,1.0,68,0.00,,RMK !SN!,0.00,WUHU216DAVISVP2,2013-04-10 02:23:00,
2013-04-09 22:28:00,57.3,47.0,29.93,SE,146,0.0,1.0,68,0.00,,RMK !SN!,0.00,WUHU216DAVISVP2,2013-04-10 02:28:00,
2013-04-09 22:33:00,57.3,47.0,29.93,SE,146,0.0,1.0,68,0.00,,RMK !SN!,0.00,WUHU216DAVISVP2,2013-04-10 02:33:00,
2013-04-09 22:38:00,57.2,46.9,29.93,SSE,147,0.0,1.0,68,0.00,,RMK !SN!,0.00,WUHU216DAVISVP2,2013-04-10 02:38:00,
2013-04-09 22:43:00,57.1,47.0,29.93,SE,146,0.0,0.0,69,0.00,,RMK !SN!,0.00,WUHU216DAVISVP2,2013-04-10 02:43:00,
2013-04-09 22:48:00,57.3,47.3,29.93,SE,146,0.0,0.0,69,0.00,,RMK !SN!,0.00,WUHU216DAVISVP2,2013-04-10 02:48:00,
2013-04-09 22:53:00,57.5,47.5,29.93,ESE,118,0.0,1.0,69,0.00,,RMK !SN!,0.00,WUHU216DAVISVP2,2013-04-10 02:53:00,
2013-04-09 22:58:00,57.8,47.8,29.94,SE,144,1.0,3.0,69,0.00,,RMK !SN!,0.00,WUHU216DAVISVP2,2013-04-10 02:58:00,
2013-04-09 23:03:00,57.9,47.9,29.94,SE,140,1.0,3.0,69,0.00,,RMK !SN!,0.00,WUHU216DAVISVP2,2013-04-10 03:03:00,
2013-04-09 23:08:00,58.0,48.0,29.93,SSE,152,0.0,3.0,69,0.00,,RMK !SN!,0.00,WUHU216DAVISVP2,2013-04-10 03:08:00,
2013-04-09 23:13:00,57.9,47.4,29.93,SSE,152,0.0,3.0,68,0.00,,RMK !SN!,0.00,WUHU216DAVISVP2,2013-04-10 03:13:00,
2013-04-09 23:18:00,57.9,47.4,29.93,SSE,148,0.0,2.0,68,0.00,,RMK !SN!,0.00,WUHU216DAVISVP2,2013-04-10 03:18:00,
2013-04-09 23:23:00,57.9,47.5,29.93,SSE,148,0.0,2.0,68,0.00,,RMK !SN!,0.00,WUHU216DAVISVP2,2013-04-10 03:23:00,
2013-04-09 23:28:00,58.0,48.0,29.93,SSE,148,0.0,2.0,69,0.00,,RMK !SN!,0.00,WUHU216DAVISVP2,2013-04-10 03:28:00,
2013-04-09 23:33:00,58.0,48.0,29.93,SSE,148,0.0,1.0,69,0.00,,RMK !SN!,0.00,WUHU216DAVISVP2,2013-04-10 03:33:00,
2013-04-09 23:38:00,58.1,48.1,29.93,SSE,148,0.0,1.0,69,0.00,,RMK !SN!,0.00,WUHU216DAVISVP2,2013-04-10 03:38:00,
2013-04-09 23:43:00,58.2,48.2,29.93,SSE,148,0.0,1.0,69,0.00,,RMK !SN!,0.00,WUHU216DAVISVP2,2013-04-10 03:43:00,
2013-04-09 23:48:00,58.3,48.3,29.93,SSE,148,0.0,0.0,69,0.00,,RMK !SN!,0.00,WUHU216DAVISVP2,2013-04-10 03:48:00,
2013-04-09 23:53:00,58.4,48.4,29.93,SSE,148,0.0,0.0,69,0.00,,RMK !SN!,0.00,WUHU216DAVISVP2,2013-04-10 03:53:00,
2013-04-09 23:58:00,58.6,48.6,29.93,SSE,148,0.0,0.0,69,0.00,,RMK !SN!,0.00,WUHU216DAVISVP2,2013-04-10 03:58:00,